createdAt,value
2018-04-30T00:00:16.847Z,61.70
2018-04-30T00:02:44.978Z,62.00
2018-04-30T00:05:12.507Z,62.20
2018-04-30T00:07:40.933Z,62.00
2018-04-30T00:10:09.224Z,62.10
2018-04-30T00:12:37.500Z,62.60
2018-04-30T00:15:14.002Z,62.40
2018-04-30T00:17:41.523Z,62.40
2018-04-30T00:20:10.081Z,62.00
2018-04-30T00:22:37.584Z,62.00
2018-04-30T00:25:05.140Z,62.00
2018-04-30T00:27:32.659Z,61.90
2018-04-30T00:30:00.633Z,62.50
2018-04-30T00:32:28.164Z,62.00
2018-04-30T00:34:56.443Z,62.00
2018-04-30T00:37:23.968Z,61.90
2018-04-30T00:39:51.517Z,61.90
2018-04-30T00:42:23.906Z,62.10
2018-04-30T00:44:51.719Z,62.00
2018-04-30T00:47:19.266Z,62.30
2018-04-30T00:49:46.788Z,62.20
2018-04-30T00:52:14.307Z,62.30
2018-04-30T00:54:57.662Z,62.40
2018-04-30T00:57:25.966Z,62.10
2018-04-30T00:59:53.509Z,62.10
2018-04-30T01:02:21.060Z,62.20
2018-04-30T01:04:49.371Z,62.30
2018-04-30T01:07:16.928Z,62.30
2018-04-30T01:09:48.568Z,62.10
2018-04-30T01:12:19.544Z,62.10
2018-04-30T01:14:47.061Z,62.20
2018-04-30T01:17:18.636Z,63.20
2018-04-30T01:19:46.156Z,63.00
2018-04-30T01:22:14.589Z,63.20
2018-04-30T01:24:42.771Z,63.10
2018-04-30T01:27:10.370Z,63.00
2018-04-30T01:29:39.264Z,63.20
2018-04-30T01:32:07.572Z,63.50
2018-04-30T01:34:35.082Z,63.50
2018-04-30T01:37:02.632Z,63.40
2018-04-30T01:39:30.161Z,63.10
2018-04-30T01:41:57.705Z,63.50
2018-04-30T01:44:25.239Z,63.20
2018-04-30T01:46:53.520Z,62.60
2018-04-30T01:49:21.830Z,62.80
2018-04-30T01:51:49.363Z,62.80
2018-04-30T01:54:18.247Z,63.20
2018-04-30T01:56:46.528Z,63.50
2018-04-30T01:59:14.872Z,63.60
2018-04-30T02:01:42.415Z,63.50
2018-04-30T02:04:09.927Z,63.70
2018-04-30T02:06:38.212Z,64.10
2018-04-30T02:09:09.270Z,64.00
2018-04-30T02:11:36.801Z,63.70
2018-04-30T02:14:04.333Z,63.40
2018-04-30T02:16:31.858Z,63.80
2018-04-30T02:18:59.380Z,64.80
2018-04-30T02:21:27.668Z,64.10
2018-04-30T02:23:55.186Z,64.10
2018-04-30T02:26:22.720Z,64.60
2018-04-30T02:28:50.228Z,65.20
2018-04-30T02:31:18.502Z,64.80
2018-04-30T02:33:46.807Z,65.40
2018-04-30T02:36:14.329Z,65.20
2018-04-30T02:38:42.516Z,65.00
2018-04-30T02:41:10.813Z,64.70
2018-04-30T02:43:38.394Z,64.70
2018-04-30T02:46:05.966Z,64.80
2018-04-30T02:48:33.492Z,64.50
2018-04-30T02:51:01.024Z,65.60
2018-04-30T02:53:29.165Z,66.20
2018-04-30T02:55:57.181Z,67.20
2018-04-30T02:58:25.467Z,66.60
2018-04-30T03:00:54.442Z,66.40
2018-04-30T03:03:21.959Z,66.40
2018-04-30T03:05:49.482Z,66.70
2018-04-30T03:08:17.755Z,66.60
2018-04-30T03:10:46.145Z,66.70
2018-04-30T03:13:14.235Z,66.70
2018-04-30T03:15:41.779Z,67.00
2018-04-30T03:18:09.294Z,67.10
2018-04-30T03:20:40.779Z,67.10
2018-04-30T03:23:08.859Z,67.60
2018-04-30T03:25:36.533Z,68.70
2018-04-30T03:28:04.894Z,68.20
2018-04-30T03:30:32.412Z,68.00
2018-04-30T03:32:59.947Z,68.90
2018-04-30T03:35:27.715Z,68.80
2018-04-30T03:37:55.243Z,68.40
2018-04-30T03:40:23.484Z,68.90
2018-04-30T03:42:54.927Z,69.20
2018-04-30T03:45:22.442Z,69.00
2018-04-30T03:47:49.989Z,69.00
2018-04-30T03:50:17.517Z,68.90
2018-04-30T03:52:45.076Z,69.00
2018-04-30T03:55:12.632Z,69.20
2018-04-30T03:57:40.158Z,69.20
2018-04-30T04:00:07.785Z,69.00
2018-04-30T04:02:47.250Z,69.00
2018-04-30T04:05:27.795Z,69.40
2018-04-30T04:07:55.312Z,69.60
2018-04-30T04:10:22.930Z,70.00
2018-04-30T04:12:50.543Z,70.10
2018-04-30T04:15:17.996Z,69.90
2018-04-30T04:17:45.507Z,69.90
2018-04-30T04:20:13.040Z,70.00
2018-04-30T04:22:41.332Z,70.30
2018-04-30T04:25:08.866Z,70.20
2018-04-30T04:27:38.493Z,71.00
2018-04-30T04:30:06.079Z,70.90
2018-04-30T04:32:34.372Z,70.90
2018-04-30T04:35:06.107Z,70.90
2018-04-30T04:37:33.645Z,70.80
2018-04-30T04:40:01.655Z,71.40
2018-04-30T04:42:29.988Z,71.10
2018-04-30T04:44:58.276Z,71.50
2018-04-30T04:47:25.862Z,71.50
2018-04-30T04:49:54.104Z,71.20
2018-04-30T04:52:22.406Z,71.20
2018-04-30T04:54:49.977Z,71.20
2018-04-30T04:57:17.531Z,71.30
2018-04-30T04:59:45.927Z,71.30
2018-04-30T05:02:14.408Z,71.80
2018-04-30T05:04:42.489Z,71.60
2018-04-30T05:07:13.891Z,71.60
2018-04-30T05:09:42.242Z,71.30
2018-04-30T05:12:09.912Z,71.80
2018-04-30T05:14:38.209Z,72.00
2018-04-30T05:17:05.747Z,71.90
2018-04-30T05:19:33.286Z,72.00
2018-04-30T05:22:00.806Z,72.20
2018-04-30T05:24:28.349Z,72.70
2018-04-30T05:27:00.447Z,72.90
2018-04-30T05:29:28.668Z,73.20
2018-04-30T05:31:57.199Z,73.20
2018-04-30T05:34:24.752Z,73.00
2018-04-30T05:36:53.376Z,73.00
2018-04-30T05:39:20.918Z,72.90
2018-04-30T05:41:52.373Z,72.70
2018-04-30T05:44:19.906Z,72.60
2018-04-30T05:46:48.693Z,72.80
2018-04-30T05:49:27.969Z,72.90
2018-04-30T06:01:44.372Z,72.50
2018-04-30T06:04:11.926Z,73.70
2018-04-30T06:06:40.322Z,72.80
2018-04-30T06:09:08.647Z,72.70
2018-04-30T06:11:36.211Z,71.90
2018-04-30T06:14:04.092Z,72.00
2018-04-30T06:16:35.894Z,71.30
2018-04-30T06:19:04.090Z,71.20
2018-04-30T06:21:32.172Z,70.60
2018-04-30T06:24:00.342Z,70.20
2018-04-30T06:26:27.943Z,70.10
2018-04-30T06:28:55.512Z,69.60
2018-04-30T06:31:23.903Z,70.10
2018-04-30T06:33:52.205Z,69.30
2018-04-30T06:49:20.369Z,69.30
2018-04-30T06:51:47.893Z,71.00
2018-04-30T06:54:17.075Z,69.30
2018-04-30T06:56:44.690Z,69.30
2018-04-30T06:59:12.225Z,68.20
2018-04-30T07:01:39.750Z,67.60
2018-04-30T07:04:07.341Z,67.40
2018-04-30T07:06:35.626Z,66.30
2018-04-30T07:09:04.176Z,66.20
2018-04-30T07:11:32.499Z,67.20
2018-04-30T07:14:00.021Z,66.10
2018-04-30T07:16:32.614Z,67.00
2018-04-30T07:19:06.777Z,66.00
2018-04-30T07:21:35.043Z,65.90
2018-04-30T07:24:06.603Z,66.20
2018-04-30T07:26:35.325Z,65.40
2018-04-30T07:29:02.847Z,65.70
2018-04-30T07:31:30.408Z,66.50
2018-04-30T07:33:57.956Z,66.70
2018-04-30T07:36:25.475Z,66.90
2018-04-30T07:38:57.821Z,66.90
2018-04-30T07:41:25.365Z,66.80
2018-04-30T07:43:53.580Z,66.70
2018-04-30T07:46:22.440Z,67.00
2018-04-30T07:48:50.009Z,67.00
2018-04-30T07:51:17.523Z,67.70
2018-04-30T07:53:45.487Z,67.00
2018-04-30T07:56:13.412Z,67.40
2018-04-30T07:58:41.030Z,68.10
2018-04-30T08:01:08.635Z,68.30
2018-04-30T08:03:36.192Z,68.60
2018-04-30T08:06:03.719Z,69.30
2018-04-30T08:08:35.266Z,68.60
2018-04-30T08:11:04.830Z,69.10
2018-04-30T08:13:37.042Z,68.10
2018-04-30T08:16:04.595Z,68.10
2018-04-30T08:18:32.811Z,66.10
2018-04-30T08:21:00.329Z,65.60
2018-04-30T08:23:27.855Z,64.70
2018-04-30T08:25:56.927Z,64.00
2018-04-30T08:28:29.202Z,64.00
2018-04-30T08:30:56.723Z,64.10
2018-04-30T08:33:24.247Z,65.20
2018-04-30T08:35:52.536Z,64.30
2018-04-30T08:38:24.331Z,64.30
2018-04-30T08:53:56.675Z,64.50
2018-04-30T08:56:24.250Z,64.40
2018-04-30T08:58:52.637Z,63.30
2018-04-30T09:01:20.301Z,63.20
2018-04-30T09:03:47.907Z,61.70
2018-04-30T09:06:20.230Z,60.20
2018-04-30T09:08:47.771Z,60.20
2018-04-30T09:11:15.299Z,60.60
2018-04-30T09:13:43.080Z,60.80
2018-04-30T09:16:11.757Z,61.70
2018-04-30T09:18:40.202Z,61.70
2018-04-30T09:21:07.764Z,61.50
2018-04-30T09:23:40.380Z,62.20
2018-04-30T09:26:08.520Z,60.90
2018-04-30T09:28:36.047Z,60.90
2018-04-30T09:31:07.841Z,60.80
2018-04-30T09:33:35.494Z,60.30
2018-04-30T09:36:03.095Z,60.40
2018-04-30T09:38:30.663Z,60.80
2018-04-30T09:40:58.194Z,60.40
2018-04-30T09:43:29.958Z,58.30
2018-04-30T09:46:02.451Z,57.90
2018-04-30T09:48:30.804Z,58.50
2018-04-30T09:50:59.483Z,57.00
2018-04-30T09:53:27.306Z,57.00
2018-04-30T09:55:55.680Z,56.80
2018-04-30T09:58:27.055Z,57.80
2018-04-30T10:00:54.610Z,57.90
2018-04-30T10:03:25.638Z,58.80
2018-04-30T10:18:53.218Z,60.40
2018-04-30T10:21:24.885Z,63.10
2018-04-30T10:23:53.596Z,62.20
2018-04-30T10:26:21.075Z,62.60
2018-04-30T10:28:49.421Z,63.00
2018-04-30T10:31:17.737Z,58.60
2018-04-30T10:33:45.288Z,58.60
2018-04-30T10:49:12.882Z,58.80
2018-04-30T10:51:40.438Z,61.50
2018-04-30T10:54:08.855Z,60.40
2018-04-30T10:56:41.504Z,59.90
2018-04-30T10:59:13.447Z,59.80
2018-04-30T11:01:40.991Z,60.20
2018-04-30T11:04:08.997Z,58.80
2018-04-30T11:06:44.486Z,58.10
2018-04-30T11:09:12.015Z,57.90
2018-04-30T11:11:39.838Z,57.30
2018-04-30T11:14:07.362Z,57.50
2018-04-30T11:16:36.249Z,55.80
2018-04-30T11:19:04.535Z,56.10
2018-04-30T11:21:33.673Z,55.90
2018-04-30T11:24:01.223Z,56.40
2018-04-30T11:26:29.190Z,55.60
2018-04-30T11:28:56.753Z,56.20
2018-04-30T11:31:24.262Z,56.20
2018-04-30T11:33:53.524Z,56.60
2018-04-30T11:36:21.884Z,56.10
2018-04-30T11:38:49.973Z,55.50
2018-04-30T11:41:18.319Z,55.50
2018-04-30T11:43:50.095Z,55.60
2018-04-30T11:46:18.084Z,56.00
2018-04-30T12:01:45.940Z,56.20
2018-04-30T12:04:13.498Z,57.20
2018-04-30T12:06:41.716Z,56.40
2018-04-30T12:09:10.425Z,56.70
2018-04-30T12:11:42.211Z,56.70
2018-04-30T12:14:10.297Z,57.00
2018-04-30T12:16:41.924Z,55.30
2018-04-30T12:19:09.552Z,56.00
2018-04-30T12:21:38.807Z,55.80
2018-04-30T12:24:06.807Z,55.70
2018-04-30T12:26:35.989Z,55.50
2018-04-30T12:29:04.117Z,55.50
2018-04-30T12:31:32.348Z,54.50
2018-04-30T12:34:00.600Z,54.10
2018-04-30T12:36:28.120Z,52.00
2018-04-30T12:38:55.783Z,49.50
2018-04-30T12:41:27.452Z,50.50
2018-04-30T12:43:59.344Z,51.30
2018-04-30T12:46:27.248Z,52.70
2018-04-30T12:48:55.791Z,54.40
2018-04-30T12:51:24.484Z,54.40
2018-04-30T12:53:52.018Z,54.90
2018-04-30T12:56:19.584Z,55.00
2018-04-30T12:58:51.276Z,55.40
2018-04-30T13:01:18.814Z,55.50
2018-04-30T13:03:46.345Z,55.10
2018-04-30T13:06:13.950Z,55.10
2018-04-30T13:08:41.471Z,55.00
2018-04-30T13:11:09.027Z,55.00
2018-04-30T13:13:37.058Z,55.10
2018-04-30T13:16:05.369Z,54.30
2018-04-30T13:18:33.880Z,54.30
2018-04-30T13:21:01.409Z,53.90
2018-04-30T13:23:28.948Z,53.00
2018-04-30T13:25:57.268Z,51.10
2018-04-30T13:28:25.574Z,52.50
2018-04-30T13:30:53.096Z,52.50
2018-04-30T13:33:25.283Z,50.50
2018-04-30T13:36:00.563Z,48.50
2018-04-30T13:38:29.103Z,46.90
2018-04-30T13:40:56.641Z,45.60
2018-04-30T13:43:24.460Z,47.80
2018-04-30T13:45:51.976Z,48.00
2018-04-30T13:48:23.814Z,48.50
2018-04-30T13:50:52.922Z,47.70
2018-04-30T13:53:20.436Z,47.70
2018-04-30T13:55:48.416Z,46.80
2018-04-30T13:58:15.943Z,47.40
2018-04-30T14:00:43.486Z,46.40
2018-04-30T14:03:11.324Z,44.30
2018-04-30T14:05:39.809Z,47.10
2018-04-30T14:08:08.086Z,46.70
2018-04-30T14:10:36.460Z,46.80
2018-04-30T14:13:04.994Z,47.10
2018-04-30T14:15:33.358Z,47.00
2018-04-30T14:18:00.899Z,46.90
2018-04-30T14:20:29.261Z,46.70
2018-04-30T14:22:57.578Z,47.30
2018-04-30T14:25:25.093Z,47.30
2018-04-30T14:27:53.447Z,48.20
2018-04-30T14:30:21.908Z,48.10
2018-04-30T14:32:49.453Z,47.00
2018-04-30T14:35:20.981Z,46.70
2018-04-30T14:37:52.584Z,47.30
2018-04-30T14:40:21.510Z,45.20
2018-04-30T14:42:50.471Z,45.30
2018-04-30T14:45:26.742Z,45.20
2018-04-30T14:47:54.257Z,44.30
2018-04-30T14:50:22.051Z,43.80
2018-04-30T14:52:53.241Z,41.90
2018-04-30T14:55:24.641Z,42.30
2018-04-30T14:57:52.965Z,44.50
2018-04-30T15:00:21.281Z,41.40
2018-04-30T15:02:49.572Z,41.60
2018-04-30T15:05:18.061Z,41.60
2018-04-30T15:07:45.577Z,41.20
2018-04-30T15:10:13.797Z,40.70
2018-04-30T15:12:42.689Z,40.60
2018-04-30T15:15:16.192Z,41.10
2018-04-30T15:17:43.728Z,40.50
2018-04-30T15:20:15.087Z,41.00
2018-04-30T15:22:43.037Z,41.30
2018-04-30T15:25:10.596Z,40.60
2018-04-30T15:27:38.867Z,40.20
2018-04-30T15:30:06.381Z,39.40
2018-04-30T15:32:34.269Z,40.30
2018-04-30T15:48:01.880Z,37.40
2018-04-30T15:50:29.417Z,41.70
2018-04-30T15:52:57.511Z,42.10
2018-04-30T15:55:26.477Z,42.50
2018-04-30T15:57:54.948Z,42.60
2018-04-30T16:00:22.509Z,42.00
2018-04-30T16:02:50.393Z,41.90
2018-04-30T16:05:19.262Z,41.60
2018-04-30T16:07:46.771Z,41.60
2018-04-30T16:10:14.325Z,41.20
2018-04-30T16:12:42.625Z,42.10
2018-04-30T16:15:10.153Z,42.10
2018-04-30T16:17:37.802Z,41.30
2018-04-30T16:20:05.316Z,41.30
2018-04-30T16:22:33.661Z,40.80
2018-04-30T16:25:01.232Z,40.80
2018-04-30T16:27:28.924Z,41.40
2018-04-30T16:29:57.225Z,41.80
2018-04-30T16:32:24.756Z,41.80
2018-04-30T16:34:53.041Z,41.70
2018-04-30T16:37:21.980Z,42.50
2018-04-30T16:39:49.504Z,42.40
2018-04-30T16:42:17.027Z,41.80
2018-04-30T16:44:44.573Z,41.90
2018-04-30T16:47:12.151Z,41.50
2018-04-30T16:49:40.143Z,42.70
2018-04-30T16:52:08.472Z,42.90
2018-04-30T16:54:36.009Z,42.90
2018-04-30T16:57:04.075Z,43.30
2018-04-30T16:59:31.604Z,42.30
2018-04-30T17:01:59.919Z,42.70
2018-04-30T17:04:27.486Z,42.70
2018-04-30T17:06:55.009Z,42.70
2018-04-30T17:09:24.127Z,42.90
2018-04-30T17:11:57.169Z,42.90
2018-04-30T17:14:24.739Z,43.30
2018-04-30T17:16:52.880Z,43.90
2018-04-30T17:19:20.399Z,44.20
2018-04-30T17:21:47.955Z,43.80
2018-04-30T17:24:16.271Z,44.20
2018-04-30T17:26:44.626Z,44.20
2018-04-30T17:29:12.160Z,43.80
2018-04-30T17:31:40.578Z,43.70
2018-04-30T17:34:08.102Z,43.60
2018-04-30T17:36:36.830Z,42.40
2018-04-30T17:39:04.334Z,42.40
2018-04-30T17:41:31.865Z,43.20
2018-04-30T17:43:59.405Z,42.90
2018-04-30T17:46:27.360Z,43.60
2018-04-30T17:48:55.026Z,43.40
2018-04-30T17:51:22.612Z,43.30
2018-04-30T17:53:55.275Z,43.70
2018-04-30T18:09:22.845Z,43.50
2018-04-30T18:11:50.383Z,45.50
2018-04-30T18:14:17.943Z,45.00
2018-04-30T18:16:45.488Z,44.40
2018-04-30T18:19:13.184Z,44.50
2018-04-30T18:21:41.914Z,44.30
2018-04-30T18:24:10.208Z,43.80
2018-04-30T18:26:37.983Z,43.70
2018-04-30T18:29:06.377Z,44.00
2018-04-30T18:31:34.378Z,43.50
2018-04-30T18:34:03.566Z,44.20
2018-04-30T18:36:31.176Z,44.10
2018-04-30T18:38:59.581Z,44.00
2018-04-30T18:41:27.113Z,43.90
2018-04-30T18:43:55.727Z,44.00
2018-04-30T18:46:27.369Z,44.00
2018-04-30T18:48:55.351Z,44.20
2018-04-30T18:51:24.046Z,44.10
2018-04-30T18:53:51.605Z,43.90
2018-04-30T18:56:19.145Z,44.20
2018-04-30T18:58:46.675Z,44.20
2018-04-30T19:01:17.911Z,44.80
2018-04-30T19:03:45.443Z,45.50
2018-04-30T19:06:12.992Z,46.20
2018-04-30T19:08:41.608Z,46.50
2018-04-30T19:11:09.154Z,46.60
2018-04-30T19:13:37.345Z,46.30
2018-04-30T19:16:04.911Z,47.10
2018-04-30T19:18:33.295Z,47.00
2018-04-30T19:21:00.813Z,47.10
2018-04-30T19:23:28.583Z,47.30
2018-04-30T19:25:56.123Z,46.50
2018-04-30T19:28:23.669Z,47.10
2018-04-30T19:30:55.120Z,46.60
2018-04-30T19:33:22.646Z,46.80
2018-04-30T19:35:50.800Z,45.70
2018-04-30T19:38:18.772Z,45.60
2018-04-30T19:40:46.311Z,45.60
2018-04-30T19:43:13.836Z,45.30
2018-04-30T19:45:47.408Z,45.80
2018-04-30T19:48:14.938Z,45.80
2018-04-30T19:50:42.477Z,45.60
2018-04-30T19:53:11.691Z,45.90
2018-04-30T19:55:39.226Z,45.40
2018-04-30T19:58:06.789Z,45.60
2018-04-30T20:00:34.323Z,46.10
2018-04-30T20:03:03.241Z,46.60
2018-04-30T20:05:31.024Z,46.60
2018-04-30T20:08:03.184Z,47.10
2018-04-30T20:10:30.758Z,47.30
2018-04-30T20:12:58.295Z,47.70
2018-04-30T20:15:25.836Z,47.60
2018-04-30T20:17:54.120Z,47.40
2018-04-30T20:20:22.485Z,47.70
2018-04-30T20:22:49.978Z,47.60
2018-04-30T20:25:17.531Z,47.60
2018-04-30T20:27:45.056Z,47.60
2018-04-30T20:30:13.630Z,48.00
2018-04-30T20:32:41.783Z,48.00
2018-04-30T20:35:09.429Z,47.90
2018-04-30T20:37:40.949Z,47.60
2018-04-30T20:40:12.268Z,48.00
2018-04-30T20:42:44.930Z,48.20
2018-04-30T20:45:12.471Z,48.20
2018-04-30T20:47:41.180Z,49.40
2018-04-30T20:50:08.757Z,49.00
2018-04-30T20:52:37.078Z,48.70
2018-04-30T20:55:05.419Z,48.70
2018-04-30T20:57:33.764Z,48.50
2018-04-30T21:00:01.295Z,48.40
2018-04-30T21:02:28.835Z,48.10
2018-04-30T21:04:57.150Z,49.50
2018-04-30T21:07:25.119Z,48.90
2018-04-30T21:09:53.448Z,49.70
2018-04-30T21:12:25.592Z,50.10
2018-04-30T21:14:53.141Z,50.10
2018-04-30T21:17:20.716Z,49.90
2018-04-30T21:19:48.241Z,50.30
2018-04-30T21:22:15.794Z,50.70
2018-04-30T21:24:44.095Z,50.50
2018-04-30T21:27:11.607Z,50.90
2018-04-30T21:29:43.448Z,50.90
2018-04-30T21:32:12.978Z,51.20
2018-04-30T21:34:41.375Z,51.20
2018-04-30T21:37:08.912Z,51.30
2018-04-30T21:39:37.778Z,51.30
2018-04-30T21:42:05.337Z,51.30
2018-04-30T21:44:33.167Z,50.80
2018-04-30T21:47:00.690Z,51.20
2018-04-30T21:49:28.239Z,50.90
2018-04-30T21:51:56.533Z,50.90
2018-04-30T21:54:24.089Z,50.80
2018-04-30T21:56:51.916Z,50.60
2018-04-30T21:59:19.450Z,51.00
2018-04-30T22:01:46.983Z,51.10
2018-04-30T22:04:15.473Z,50.90
2018-04-30T22:06:47.161Z,50.30
2018-04-30T22:09:14.687Z,50.20
2018-04-30T22:11:43.705Z,50.00
2018-04-30T22:14:15.609Z,49.80
2018-04-30T22:16:44.158Z,50.30
2018-04-30T22:19:11.702Z,50.30
2018-04-30T22:21:43.356Z,50.40
2018-04-30T22:24:11.360Z,50.40
2018-04-30T22:26:39.290Z,50.50
2018-04-30T22:29:06.793Z,50.40
2018-04-30T22:31:38.326Z,50.10
2018-04-30T22:34:06.305Z,49.40
2018-04-30T22:36:34.393Z,49.10
2018-04-30T22:39:02.195Z,49.20
2018-04-30T22:41:29.703Z,50.00
2018-04-30T22:43:57.902Z,49.70
2018-04-30T22:46:29.705Z,50.10
2018-04-30T22:48:57.244Z,50.00
2018-04-30T22:51:26.533Z,50.60
2018-04-30T22:53:54.234Z,50.50
2018-04-30T22:56:37.938Z,50.60
2018-04-30T23:12:05.509Z,50.80
2018-04-30T23:14:33.150Z,52.50
2018-04-30T23:17:04.936Z,51.90
2018-04-30T23:19:33.810Z,51.80
2018-04-30T23:35:04.988Z,51.50
2018-04-30T23:37:32.523Z,51.80
2018-04-30T23:40:01.328Z,50.50
2018-04-30T23:45:16.251Z,49.30
2018-04-30T23:47:45.048Z,49.30
2018-04-30T23:50:13.364Z,49.30
2018-04-30T23:52:43.017Z,49.20
2018-04-30T23:55:13.263Z,49.30
2018-04-30T23:57:41.550Z,48.70
